Time;durP1;ratioP1;P1;durP2;ratioP2;P2;SDS_P1;SDS_P2;PMS_P1;PMS_P2;Temp;Humidity;BMP_temperature;BMP_pressure;BME280_temperature;BME280_humidity;BME280_pressure;Samples;Min_cycle;Max_cycle;Signal;HPM_P1;HPM_P2
2022/02/02 00:00:40;;;;;;;;;;;-2.10;99.90;;;;;;4170472;28;20596;-43
2022/02/02 00:02:55;;;;;;;;;;;-2.10;99.90;;;;;;4176559;28;20019;-41
2022/02/02 00:05:01;;;;;;;;;;;-2.30;99.90;;;;;;4173358;28;20393;-41
2022/02/02 00:07:53;;;;;;;;;;;-2.20;99.90;;;;;;4177848;28;19964;-42
2022/02/02 00:09:26;;;;;;;;;;;-2.30;99.90;;;;;;4164774;28;20317;-43
2022/02/02 00:20:23;;;;;;;;;;;-2.60;99.90;;;;;;4165199;28;19964;-43
2022/02/02 00:22:32;;;;;;;;;;;-2.50;99.90;;;;;;4166136;28;20383;-42
2022/02/02 00:24:51;;;;;;;;;;;-2.50;99.90;;;;;;4161438;28;20427;-43
2022/02/02 00:26:56;;;;;;;;;;;-2.50;99.90;;;;;;4163141;28;19933;-42
2022/02/02 00:29:10;;;;;;;;;;;-2.60;99.90;;;;;;4165558;28;19979;-41
2022/02/02 00:31:18;;;;;;;;;;;-2.70;99.90;;;;;;4163349;28;20307;-42
2022/02/02 00:33:25;;;;;;;;;;;-2.80;99.90;;;;;;4176429;28;19960;-42
2022/02/02 00:35:39;;;;;;;;;;;-2.70;99.90;;;;;;4177687;28;19924;-42
2022/02/02 00:37:41;;;;;;;;;;;-2.80;99.90;;;;;;4176938;28;20401;-42
2022/02/02 00:39:43;;;;;;;;;;;-2.90;99.90;;;;;;4180100;28;19971;-43
2022/02/02 00:41:45;;;;;;;;;;;-2.90;99.90;;;;;;4169186;28;19948;-42
2022/02/02 00:43:54;;;;;;;;;;;-2.90;99.90;;;;;;4169226;28;19928;-43
2022/02/02 00:45:57;;;;;;;;;;;-2.80;99.90;;;;;;4163264;28;20011;-44
2022/02/02 00:48:01;;;;;;;;;;;-2.70;99.90;;;;;;4173060;28;20430;-44
2022/02/02 00:50:03;;;;;;;;;;;-2.70;99.90;;;;;;4177776;28;19936;-42
2022/02/02 00:52:05;;;;;;;;;;;-2.80;99.90;;;;;;4179533;28;19935;-43
2022/02/02 00:54:08;;;;;;;;;;;-2.80;99.90;;;;;;4176072;28;20023;-42
2022/02/02 00:56:09;;;;;;;;;;;-2.80;99.90;;;;;;4177434;28;19975;-43
2022/02/02 00:58:12;;;;;;;;;;;-2.90;99.90;;;;;;4175984;28;19932;-43
2022/02/02 01:00:14;;;;;;;;;;;-2.80;99.90;;;;;;4177472;28;19980;-42
2022/02/02 01:02:16;;;;;;;;;;;-2.80;99.90;;;;;;4177685;28;19932;-43
2022/02/02 01:04:18;;;;;;;;;;;-2.80;99.90;;;;;;4179426;28;21001;-44
2022/02/02 01:06:22;;;;;;;;;;;-2.80;99.90;;;;;;4177166;28;20302;-43
2022/02/02 01:08:47;;;;;;;;;;;-2.80;99.90;;;;;;4177635;28;19932;-42
2022/02/02 01:10:56;;;;;;;;;;;-2.80;99.90;;;;;;4173592;28;19967;-43
2022/02/02 01:19:41;;;;;;;;;;;-3.00;99.90;;;;;;4161234;28;19929;-42
2022/02/02 01:28:26;;;;;;;;;;;-2.80;99.90;;;;;;4177282;28;20562;-42
2022/02/02 01:30:28;;;;;;;;;;;-2.90;99.90;;;;;;4176807;28;19928;-43
2022/02/02 01:32:30;;;;;;;;;;;-2.90;99.90;;;;;;4167862;28;20415;-42
2022/02/02 01:34:32;;;;;;;;;;;-3.00;99.90;;;;;;4176482;28;20420;-42
2022/02/02 01:36:38;;;;;;;;;;;-3.00;99.90;;;;;;4176806;28;19975;-43
2022/02/02 01:38:42;;;;;;;;;;;-3.00;99.90;;;;;;4178230;28;19935;-43
2022/02/02 01:40:50;;;;;;;;;;;-3.00;99.90;;;;;;4159058;28;19983;-43
2022/02/02 01:43:00;;;;;;;;;;;-3.10;99.90;;;;;;4175322;28;20504;-42
2022/02/02 01:45:26;;;;;;;;;;;-3.00;99.90;;;;;;4177702;28;19925;-42
2022/02/02 01:47:34;;;;;;;;;;;-3.10;99.90;;;;;;4178159;28;20202;-43
2022/02/02 01:56:39;;;;;;;;;;;-3.00;99.90;;;;;;4177998;28;19967;-43
2022/02/02 02:01:02;;;;;;;;;;;-3.00;99.90;;;;;;4158990;28;19929;-45
2022/02/02 02:03:04;;;;;;;;;;;-3.00;99.90;;;;;;4177457;28;19935;-46
2022/02/02 02:05:06;;;;;;;;;;;-3.20;99.90;;;;;;4175012;28;20467;-45
2022/02/02 02:07:08;;;;;;;;;;;-3.20;99.90;;;;;;4160358;28;19935;-44
2022/02/02 02:09:10;;;;;;;;;;;-3.20;99.90;;;;;;4164459;28;19929;-47
2022/02/02 02:11:20;;;;;;;;;;;-3.20;99.90;;;;;;4171279;28;19929;-48
2022/02/02 02:13:56;;;;;;;;;;;-3.20;99.90;;;;;;4176068;28;20019;-43
2022/02/02 02:15:49;;;;;;;;;;;-3.20;99.90;;;;;;4178355;28;19924;-44
2022/02/02 02:17:51;;;;;;;;;;;-3.20;99.90;;;;;;4171474;28;19956;-43
2022/02/02 02:19:53;;;;;;;;;;;-3.40;99.90;;;;;;4175159;28;19929;-48
2022/02/02 02:21:55;;;;;;;;;;;-3.40;99.90;;;;;;4162277;28;20428;-46
2022/02/02 02:23:59;;;;;;;;;;;-3.30;99.90;;;;;;4168766;28;19929;-44
2022/02/02 02:26:01;;;;;;;;;;;-3.30;99.90;;;;;;4166490;28;19929;-47
2022/02/02 02:28:27;;;;;;;;;;;-3.40;99.90;;;;;;4162523;28;20444;-46
2022/02/02 02:30:49;;;;;;;;;;;-3.60;99.90;;;;;;4176210;28;20043;-45
2022/02/02 02:39:30;;;;;;;;;;;-3.70;99.90;;;;;;4174369;28;19932;-43
2022/02/02 02:55:52;;;;;;;;;;;-3.90;99.90;;;;;;4175275;28;20519;-44
2022/02/02 03:00:22;;;;;;;;;;;-3.80;99.90;;;;;;4177238;28;19972;-46
2022/02/02 03:30:15;;;;;;;;;;;-3.70;99.90;;;;;;4172811;28;20011;-47
2022/02/02 03:35:05;;;;;;;;;;;-3.90;99.90;;;;;;4173904;28;20013;-47
2022/02/02 03:58:28;;;;;;;;;;;-4.10;99.90;;;;;;4166048;28;20542;-47
2022/02/02 04:00:56;;;;;;;;;;;-4.00;99.90;;;;;;4165429;28;20432;-44
2022/02/02 04:07:32;;;;;;;;;;;-4.30;99.90;;;;;;4177095;28;20388;-46
2022/02/02 04:09:37;;;;;;;;;;;-4.40;99.90;;;;;;4172429;28;20336;-46
2022/02/02 04:11:50;;;;;;;;;;;-4.50;99.90;;;;;;4176554;28;19935;-44
2022/02/02 05:00:34;;;;;;;;;;;-4.50;99.90;;;;;;4179216;28;19924;-46
2022/02/02 05:05:18;;;;;;;;;;;-4.20;99.90;;;;;;4176403;28;19972;-44
2022/02/02 05:42:38;;;;;;;;;;;-4.60;99.90;;;;;;4109711;28;20401;-44
2022/02/02 05:44:33;;;;;;;;;;;-4.70;99.90;;;;;;4108516;28;20036;-43
2022/02/02 05:51:23;;;;;;;;;;;-4.80;99.90;;;;;;4178678;28;20044;-44
2022/02/02 05:53:25;;;;;;;;;;;-4.80;99.90;;;;;;4152686;28;19977;-44
2022/02/02 05:55:32;;;;;;;;;;;-4.90;99.90;;;;;;4177409;28;20002;-47
2022/02/02 05:57:38;;;;;;;;;;;-4.90;99.90;;;;;;4174669;28;20476;-47
2022/02/02 05:59:41;;;;;;;;;;;-4.90;99.90;;;;;;4176109;28;20374;-44
2022/02/02 06:01:48;;;;;;;;;;;-4.80;99.90;;;;;;4176940;28;19925;-47
2022/02/02 06:03:52;;;;;;;;;;;-4.80;99.90;;;;;;4174951;28;19929;-45
2022/02/02 06:05:54;;;;;;;;;;;-4.80;99.90;;;;;;4177527;28;19996;-44
2022/02/02 06:07:58;;;;;;;;;;;-4.70;99.90;;;;;;4167847;28;20003;-46
2022/02/02 06:10:04;;;;;;;;;;;-4.80;99.90;;;;;;4151182;28;20012;-45
2022/02/02 06:12:07;;;;;;;;;;;-4.70;99.90;;;;;;4171301;28;20028;-45
2022/02/02 06:14:10;;;;;;;;;;;-4.50;99.90;;;;;;4160021;28;19925;-45
2022/02/02 06:16:12;;;;;;;;;;;-4.40;99.90;;;;;;4176050;28;20445;-43
2022/02/02 06:18:14;;;;;;;;;;;-4.60;99.90;;;;;;4174738;28;19971;-45
2022/02/02 06:20:16;;;;;;;;;;;-4.60;99.90;;;;;;4176617;28;19981;-49
2022/02/02 06:22:20;;;;;;;;;;;-4.50;99.90;;;;;;4174659;28;19932;-51
2022/02/02 06:24:28;;;;;;;;;;;-4.50;99.90;;;;;;4162104;28;19931;-50
2022/02/02 06:26:30;;;;;;;;;;;-4.50;99.90;;;;;;4176349;28;19929;-49
2022/02/02 06:28:34;;;;;;;;;;;-4.60;99.90;;;;;;4174251;28;20438;-50
2022/02/02 06:30:35;;;;;;;;;;;-4.70;99.90;;;;;;4177914;28;19967;-47
2022/02/02 06:32:52;;;;;;;;;;;-4.60;99.90;;;;;;4174923;28;19935;-47
2022/02/02 06:34:59;;;;;;;;;;;-4.60;99.90;;;;;;4174183;28;19925;-45
2022/02/02 06:37:01;;;;;;;;;;;-4.50;99.90;;;;;;4177128;28;19964;-46
2022/02/02 06:39:04;;;;;;;;;;;-4.50;99.90;;;;;;4177492;28;19975;-45
2022/02/02 06:41:06;;;;;;;;;;;-4.40;99.90;;;;;;4175821;28;20404;-47
2022/02/02 06:43:09;;;;;;;;;;;-4.40;99.90;;;;;;4176173;28;20011;-46
2022/02/02 06:45:14;;;;;;;;;;;-4.50;99.90;;;;;;4176861;28;19998;-49
2022/02/02 06:47:16;;;;;;;;;;;-4.50;99.90;;;;;;4175936;28;19991;-48
2022/02/02 06:49:19;;;;;;;;;;;-4.50;99.90;;;;;;4172408;28;19979;-47
2022/02/02 06:51:43;;;;;;;;;;;-4.60;99.90;;;;;;4177005;28;19925;-48
2022/02/02 06:54:05;;;;;;;;;;;-4.60;99.90;;;;;;4173971;28;20496;-47
2022/02/02 06:59:27;;;;;;;;;;;-4.80;99.90;;;;;;4173076;28;20075;-48
2022/02/02 07:12:50;;;;;;;;;;;-4.70;99.90;;;;;;4169373;28;19963;-47
2022/02/02 07:25:37;;;;;;;;;;;-4.00;99.90;;;;;;4167429;28;19925;-48
2022/02/02 07:28:07;;;;;;;;;;;-4.00;99.90;;;;;;4173141;28;19996;-49
2022/02/02 07:32:36;;;;;;;;;;;-4.10;99.90;;;;;;4161994;28;20012;-46
2022/02/02 07:34:55;;;;;;;;;;;-4.30;99.90;;;;;;4174839;28;20043;-48
2022/02/02 07:37:00;;;;;;;;;;;-4.40;99.90;;;;;;4173867;28;19953;-50
2022/02/02 07:39:11;;;;;;;;;;;-4.30;99.90;;;;;;4175383;28;19925;-50
2022/02/02 07:41:19;;;;;;;;;;;-4.20;99.90;;;;;;4173818;28;19925;-49
2022/02/02 07:43:26;;;;;;;;;;;-4.20;99.90;;;;;;4174367;28;20545;-47
2022/02/02 07:45:30;;;;;;;;;;;-4.10;99.90;;;;;;4175282;28;20301;-48
2022/02/02 07:47:37;;;;;;;;;;;-3.80;99.90;;;;;;4176783;28;19928;-49
2022/02/02 07:49:43;;;;;;;;;;;-3.70;99.90;;;;;;4175005;28;19924;-47
2022/02/02 07:51:47;;;;;;;;;;;-3.70;99.90;;;;;;4173503;28;19960;-47
2022/02/02 07:53:52;;;;;;;;;;;-3.80;99.90;;;;;;4177408;28;20460;-49
2022/02/02 07:56:11;;;;;;;;;;;-3.70;99.90;;;;;;4176349;28;19936;-50
2022/02/02 07:58:18;;;;;;;;;;;-3.50;99.90;;;;;;4173530;28;20397;-48
2022/02/02 08:00:22;;;;;;;;;;;-3.50;99.90;;;;;;4177133;28;19925;-47
2022/02/02 08:04:33;;;;;;;;;;;-3.10;99.90;;;;;;4174923;28;20027;-49
2022/02/02 08:06:38;;;;;;;;;;;-2.70;99.90;;;;;;4176774;28;20481;-47
2022/02/02 08:08:42;;;;;;;;;;;-2.80;99.90;;;;;;4174929;28;20412;-48
2022/02/02 08:10:46;;;;;;;;;;;-2.90;99.90;;;;;;4175112;28;19932;-49
2022/02/02 08:12:56;;;;;;;;;;;-2.90;99.90;;;;;;4176597;28;19925;-49
2022/02/02 08:14:58;;;;;;;;;;;-2.90;99.90;;;;;;4174722;28;19932;-49
2022/02/02 08:17:00;;;;;;;;;;;-3.10;99.90;;;;;;4174689;28;19924;-47
2022/02/02 08:19:03;;;;;;;;;;;-3.10;99.90;;;;;;4175624;28;20666;-49
2022/02/02 08:21:05;;;;;;;;;;;-3.10;99.90;;;;;;4175452;28;19956;-50
2022/02/02 08:23:07;;;;;;;;;;;-2.90;99.90;;;;;;4175156;28;20153;-49
2022/02/02 08:25:10;;;;;;;;;;;-2.80;99.90;;;;;;4176908;28;19929;-46
2022/02/02 08:27:12;;;;;;;;;;;-2.80;99.90;;;;;;4174469;28;20448;-46
2022/02/02 08:29:14;;;;;;;;;;;-2.60;99.90;;;;;;4174504;28;20404;-49
2022/02/02 08:31:15;;;;;;;;;;;-2.50;99.90;;;;;;4145146;28;19925;-46
2022/02/02 08:33:26;;;;;;;;;;;-2.40;99.90;;;;;;4171603;28;20480;-50
2022/02/02 08:35:34;;;;;;;;;;;-2.30;99.90;;;;;;4174901;28;19936;-49
2022/02/02 08:37:39;;;;;;;;;;;-2.00;99.90;;;;;;4174982;28;20363;-50
2022/02/02 08:41:49;;;;;;;;;;;-1.10;99.90;;;;;;4174594;28;19931;-46
2022/02/02 08:45:56;;;;;;;;;;;-1.10;99.90;;;;;;4174859;28;19955;-49
2022/02/02 08:48:02;;;;;;;;;;;-1.00;99.90;;;;;;4174959;28;19956;-50
2022/02/02 08:50:06;;;;;;;;;;;-0.90;99.90;;;;;;4176085;28;19925;-49
2022/02/02 08:52:09;;;;;;;;;;;-0.90;99.90;;;;;;4176411;28;19971;-50
2022/02/02 08:54:29;;;;;;;;;;;-0.80;99.90;;;;;;4173580;28;19937;-50
2022/02/02 08:58:47;;;;;;;;;;;-0.70;99.90;;;;;;4178341;28;19968;-51
2022/02/02 09:00:52;;;;;;;;;;;-0.80;99.90;;;;;;4177460;28;20031;-50
2022/02/02 09:05:20;;;;;;;;;;;-0.60;99.90;;;;;;4177578;28;20013;-50
2022/02/02 09:05:24;;;;;;;;;;;-0.70;99.90;;;;;;4179418;28;19936;-50
2022/02/02 09:07:43;;;;;;;;;;;-0.70;99.90;;;;;;4167005;28;19925;-49
2022/02/02 09:10:09;;;;;;;;;;;-0.50;99.90;;;;;;4173040;28;19929;-50
2022/02/02 09:33:54;;;;;;;;;;;0.70;99.90;;;;;;4123142;28;19933;-49
2022/02/02 09:35:57;;;;;;;;;;;0.80;99.90;;;;;;4110818;28;19980;-51
2022/02/02 09:38:01;;;;;;;;;;;0.90;99.90;;;;;;4109829;28;20101;-48
2022/02/02 09:41:11;;;;;;;;;;;1.00;99.90;;;;;;4110079;28;19977;-49
2022/02/02 09:42:40;;;;;;;;;;;1.10;99.90;;;;;;4096734;28;20507;-49
2022/02/02 09:44:44;;;;;;;;;;;1.20;99.90;;;;;;4110427;28;19930;-50
2022/02/02 09:49:23;;;;;;;;;;;1.90;99.90;;;;;;4090359;28;20429;-49
2022/02/02 09:52:12;;;;;;;;;;;1.90;99.90;;;;;;4097708;28;19934;-50
2022/02/02 09:54:05;;;;;;;;;;;1.90;99.90;;;;;;4097472;28;20028;-48
2022/02/02 09:56:35;;;;;;;;;;;2.10;99.90;;;;;;4102990;28;19966;-49
2022/02/02 09:59:05;;;;;;;;;;;2.30;99.90;;;;;;4110927;28;19926;-50
2022/02/02 10:03:33;;;;;;;;;;;2.70;99.90;;;;;;4134884;28;19933;-50
2022/02/02 10:05:48;;;;;;;;;;;2.90;99.90;;;;;;4172021;28;19986;-49
2022/02/02 10:14:51;;;;;;;;;;;3.70;99.90;;;;;;4174713;28;19975;-50
2022/02/02 10:16:53;;;;;;;;;;;3.80;99.90;;;;;;4163827;28;20385;-49
2022/02/02 10:19:11;;;;;;;;;;;3.90;99.90;;;;;;4175169;28;20381;-51
2022/02/02 10:21:13;;;;;;;;;;;4.10;99.90;;;;;;4176029;28;19929;-50
2022/02/02 10:23:24;;;;;;;;;;;4.40;99.90;;;;;;4177555;28;20011;-49
2022/02/02 10:25:29;;;;;;;;;;;4.90;99.90;;;;;;4177162;28;19964;-51
2022/02/02 10:27:34;;;;;;;;;;;5.00;99.90;;;;;;4175083;28;19929;-51
2022/02/02 10:29:49;;;;;;;;;;;5.30;99.90;;;;;;4176494;28;20008;-52
2022/02/02 10:31:51;;;;;;;;;;;6.00;99.90;;;;;;4177650;28;20297;-51
2022/02/02 10:34:08;;;;;;;;;;;6.50;99.90;;;;;;4174747;28;20044;-50
2022/02/02 10:36:18;;;;;;;;;;;6.90;99.90;;;;;;4167186;28;19989;-50
2022/02/02 10:38:23;;;;;;;;;;;7.10;99.90;;;;;;4177616;28;20384;-50
2022/02/02 10:40:45;;;;;;;;;;;7.30;99.90;;;;;;4170874;28;19939;-48
2022/02/02 10:42:48;;;;;;;;;;;7.10;99.90;;;;;;4175678;28;19925;-48
2022/02/02 10:44:55;;;;;;;;;;;7.10;99.90;;;;;;4177895;28;19956;-51
2022/02/02 10:47:11;;;;;;;;;;;7.40;99.90;;;;;;4166675;28;19968;-51
2022/02/02 10:49:22;;;;;;;;;;;7.70;99.90;;;;;;4168790;28;19928;-48
2022/02/02 10:56:30;;;;;;;;;;;8.30;99.90;;;;;;4175341;28;19964;-50
2022/02/02 11:01:35;;;;;;;;;;;8.40;99.90;;;;;;4140135;28;20009;-51
2022/02/02 11:08:19;;;;;;;;;;;9.00;99.90;;;;;;4139537;28;20021;-51
2022/02/02 11:10:22;;;;;;;;;;;9.40;99.90;;;;;;4138962;28;20468;-51
2022/02/02 11:12:27;;;;;;;;;;;9.20;99.90;;;;;;4139369;28;20025;-50
2022/02/02 11:14:48;;;;;;;;;;;9.00;99.90;;;;;;4135599;28;20018;-52
2022/02/02 11:16:57;;;;;;;;;;;9.10;99.90;;;;;;4137072;28;20041;-51
2022/02/02 11:19:00;;;;;;;;;;;9.10;99.90;;;;;;4139091;28;19929;-52
2022/02/02 11:21:06;;;;;;;;;;;9.20;99.90;;;;;;4139011;28;20008;-52
2022/02/02 11:23:09;;;;;;;;;;;9.90;99.90;;;;;;4118067;28;20021;-52
2022/02/02 11:25:10;;;;;;;;;;;9.90;99.90;;;;;;4124888;28;19977;-52
2022/02/02 11:27:31;;;;;;;;;;;9.80;99.90;;;;;;4140922;28;20024;-53
2022/02/02 11:29:40;;;;;;;;;;;9.80;99.90;;;;;;4139328;28;19932;-50
2022/02/02 11:32:00;;;;;;;;;;;9.70;99.90;;;;;;4140191;28;20017;-53
2022/02/02 11:34:03;;;;;;;;;;;9.80;99.90;;;;;;4133719;28;19968;-52
2022/02/02 11:36:16;;;;;;;;;;;9.70;99.90;;;;;;4134743;28;19961;-52
2022/02/02 11:38:25;;;;;;;;;;;9.70;99.90;;;;;;4151265;28;19929;-52
2022/02/02 11:40:31;;;;;;;;;;;9.80;99.90;;;;;;4172590;28;20016;-50
2022/02/02 11:42:44;;;;;;;;;;;9.80;99.90;;;;;;4174204;28;20040;-52
2022/02/02 11:44:54;;;;;;;;;;;10.10;99.90;;;;;;4173844;28;19932;-51
2022/02/02 11:47:37;;;;;;;;;;;10.10;99.90;;;;;;4174139;28;19940;-51
2022/02/02 11:49:49;;;;;;;;;;;10.50;99.90;;;;;;4168764;28;19964;-52
2022/02/02 11:51:55;;;;;;;;;;;10.50;99.90;;;;;;4169337;28;20290;-51
2022/02/02 11:53:58;;;;;;;;;;;10.40;99.90;;;;;;4166274;28;20341;-52
2022/02/02 11:56:04;;;;;;;;;;;10.50;99.90;;;;;;4171671;28;20015;-52
2022/02/02 11:58:15;;;;;;;;;;;10.30;99.90;;;;;;4149385;28;19925;-52
2022/02/02 12:03:12;;;;;;;;;;;10.40;99.90;;;;;;4168856;28;20028;-52
2022/02/02 12:05:27;;;;;;;;;;;10.50;99.90;;;;;;4166334;28;19948;-52
2022/02/02 12:07:47;;;;;;;;;;;10.50;99.90;;;;;;4167343;28;19936;-52
2022/02/02 12:09:59;;;;;;;;;;;10.60;99.90;;;;;;4158469;28;19929;-52
2022/02/02 12:19:52;;;;;;;;;;;10.70;99.90;;;;;;4172418;28;19929;-51
2022/02/02 12:50:16;;;;;;;;;;;11.30;99.90;;;;;;4177815;28;20787;-49
2022/02/02 12:56:58;;;;;;;;;;;11.70;99.90;;;;;;4179398;28;20452;-49
2022/02/02 12:59:23;;;;;;;;;;;11.50;99.90;;;;;;4177403;28;19933;-50
2022/02/02 13:01:25;;;;;;;;;;;11.70;99.90;;;;;;4176401;28;19964;-47
2022/02/02 13:03:30;;;;;;;;;;;11.60;99.90;;;;;;4164135;28;19980;-50
2022/02/02 13:05:34;;;;;;;;;;;11.50;99.90;;;;;;4176973;28;20381;-50
2022/02/02 13:07:41;;;;;;;;;;;11.70;99.90;;;;;;4177299;28;19933;-50
2022/02/02 13:09:46;;;;;;;;;;;12.00;99.90;;;;;;4187793;28;20376;-48
2022/02/02 13:11:48;;;;;;;;;;;12.00;99.90;;;;;;4176680;28;20024;-47
2022/02/02 13:13:50;;;;;;;;;;;11.90;99.90;;;;;;4172919;28;19935;-51
2022/02/02 13:16:10;;;;;;;;;;;11.70;99.90;;;;;;4177941;28;20356;-48
2022/02/02 13:20:38;;;;;;;;;;;12.10;99.90;;;;;;4170653;28;20019;-50
2022/02/02 13:22:51;;;;;;;;;;;11.90;99.90;;;;;;4164860;28;20507;-48
2022/02/02 13:24:53;;;;;;;;;;;12.00;99.90;;;;;;4164518;28;20241;-51
2022/02/02 13:27:08;;;;;;;;;;;12.00;99.90;;;;;;4173418;28;19975;-54
2022/02/02 13:29:29;;;;;;;;;;;12.10;99.90;;;;;;4177385;28;20428;-54
2022/02/02 13:33:52;;;;;;;;;;;12.80;99.50;;;;;;4176922;28;20413;-53
2022/02/02 13:36:16;;;;;;;;;;;12.50;99.90;;;;;;4176091;28;19976;-54
2022/02/02 13:38:41;;;;;;;;;;;12.60;99.80;;;;;;4176783;28;20354;-55
2022/02/02 13:44:20;;;;;;;;;;;12.60;99.80;;;;;;4176500;28;20550;-54
2022/02/02 13:53:22;;;;;;;;;;;12.70;99.80;;;;;;4176508;28;19956;-53
2022/02/02 13:55:41;;;;;;;;;;;12.80;99.90;;;;;;4176011;28;20015;-55
2022/02/02 13:58:16;;;;;;;;;;;12.60;99.90;;;;;;4174297;28;20424;-55
2022/02/02 14:00:29;;;;;;;;;;;12.40;99.90;;;;;;4166950;28;19943;-54
2022/02/02 14:05:23;;;;;;;;;;;12.60;99.90;;;;;;4159184;28;19983;-55
2022/02/02 14:07:42;;;;;;;;;;;12.70;99.90;;;;;;4176615;28;20039;-54
2022/02/02 14:32:55;;;;;;;;;;;13.30;99.90;;;;;;4158997;28;19956;-53
2022/02/02 14:35:05;;;;;;;;;;;13.10;99.90;;;;;;4174783;28;19931;-55
2022/02/02 14:37:27;;;;;;;;;;;13.10;99.90;;;;;;4176002;28;20734;-55
2022/02/02 14:40:01;;;;;;;;;;;13.30;99.90;;;;;;4176764;28;20016;-54
2022/02/02 14:42:11;;;;;;;;;;;13.00;99.90;;;;;;4176013;28;20064;-55
2022/02/02 14:44:38;;;;;;;;;;;13.10;99.90;;;;;;4175915;28;20031;-55
2022/02/02 14:47:07;;;;;;;;;;;13.20;99.90;;;;;;4175504;28;21079;-55
2022/02/02 14:51:25;;;;;;;;;;;13.20;99.90;;;;;;4175534;28;19928;-55
2022/02/02 15:24:45;;;;;;;;;;;12.00;99.90;;;;;;4146817;28;19929;-54
2022/02/02 15:28:52;;;;;;;;;;;12.00;99.90;;;;;;4176924;28;19925;-54
2022/02/02 15:30:59;;;;;;;;;;;12.00;99.90;;;;;;4174033;28;20200;-54
2022/02/02 15:33:05;;;;;;;;;;;12.00;99.90;;;;;;4174244;28;20019;-55
2022/02/02 15:35:07;;;;;;;;;;;12.00;99.90;;;;;;4177137;28;19964;-53
2022/02/02 15:39:34;;;;;;;;;;;11.90;99.90;;;;;;4176567;28;19932;-54
2022/02/02 15:41:46;;;;;;;;;;;11.80;99.90;;;;;;4173220;28;19972;-55
2022/02/02 15:55:22;;;;;;;;;;;11.50;99.90;;;;;;4165678;28;19931;-55
2022/02/02 16:03:52;;;;;;;;;;;11.30;99.90;;;;;;4168817;28;19932;-54
2022/02/02 16:05:59;;;;;;;;;;;11.20;99.90;;;;;;4178881;28;19925;-53
2022/02/02 16:08:06;;;;;;;;;;;11.00;99.90;;;;;;4174534;28;19929;-54
2022/02/02 16:10:15;;;;;;;;;;;10.90;99.90;;;;;;4173145;28;19936;-54
2022/02/02 16:14:27;;;;;;;;;;;10.60;99.90;;;;;;4172070;28;19935;-54
2022/02/02 16:18:37;;;;;;;;;;;10.30;99.90;;;;;;4177254;28;19929;-53
2022/02/02 16:25:10;;;;;;;;;;;10.10;99.90;;;;;;4179830;28;20404;-52
2022/02/02 16:32:26;;;;;;;;;;;10.00;99.90;;;;;;4177854;28;19964;-52
2022/02/02 16:36:54;;;;;;;;;;;9.90;99.90;;;;;;4147388;28;20037;-53
2022/02/02 16:39:06;;;;;;;;;;;9.90;99.90;;;;;;4155039;28;20008;-52
2022/02/02 16:42:56;;;;;;;;;;;9.90;99.90;;;;;;4177305;28;19929;-54
2022/02/02 16:43:30;;;;;;;;;;;9.70;99.90;;;;;;4179243;28;20035;-55
2022/02/02 16:45:33;;;;;;;;;;;9.60;99.90;;;;;;4177673;28;19933;-54
2022/02/02 16:47:35;;;;;;;;;;;9.50;99.90;;;;;;4175813;28;20039;-54
2022/02/02 16:49:49;;;;;;;;;;;9.40;99.90;;;;;;4176393;28;19947;-53
2022/02/02 16:51:52;;;;;;;;;;;9.30;99.90;;;;;;4177772;28;19929;-54
2022/02/02 16:53:57;;;;;;;;;;;9.30;99.90;;;;;;4176474;28;20526;-54
2022/02/02 16:56:12;;;;;;;;;;;9.30;99.90;;;;;;4163569;28;20012;-54
2022/02/02 17:34:37;;;;;;;;;;;8.00;99.90;;;;;;4175475;28;19979;-54
2022/02/02 17:36:48;;;;;;;;;;;7.80;99.90;;;;;;4178665;28;20345;-55
2022/02/02 17:39:08;;;;;;;;;;;7.60;99.90;;;;;;4171909;28;19931;-54
2022/02/02 17:43:36;;;;;;;;;;;7.50;99.90;;;;;;4175589;28;20036;-55
2022/02/02 18:19:59;;;;;;;;;;;6.80;99.90;;;;;;4174640;28;20472;-50
2022/02/02 18:22:01;;;;;;;;;;;6.30;99.90;;;;;;4174949;28;19935;-48
2022/02/02 18:30:40;;;;;;;;;;;6.40;99.90;;;;;;4177601;28;19928;-49
2022/02/02 18:37:43;;;;;;;;;;;5.80;99.90;;;;;;4172472;28;19925;-49
2022/02/02 18:48:17;;;;;;;;;;;6.50;99.90;;;;;;4177729;28;20410;-48
2022/02/02 18:52:48;;;;;;;;;;;6.10;99.90;;;;;;4174459;28;20459;-50
2022/02/02 18:57:20;;;;;;;;;;;6.20;99.90;;;;;;4175962;28;19925;-48
2022/02/02 19:52:27;;;;;;;;;;;4.40;99.90;;;;;;4175051;28;20417;-49
2022/02/02 19:57:23;;;;;;;;;;;4.40;99.90;;;;;;4173302;28;20380;-50
2022/02/02 20:10:48;;;;;;;;;;;4.60;99.90;;;;;;4177456;28;19971;-47
2022/02/02 20:12:52;;;;;;;;;;;4.40;99.90;;;;;;4177686;28;19974;-47
2022/02/02 20:14:54;;;;;;;;;;;4.20;99.90;;;;;;4174466;28;20427;-50
2022/02/02 20:16:56;;;;;;;;;;;4.10;99.90;;;;;;4174972;28;20015;-51
2022/02/02 20:19:00;;;;;;;;;;;4.10;99.90;;;;;;4172585;28;20012;-48
2022/02/02 20:21:06;;;;;;;;;;;4.30;99.90;;;;;;4175823;28;19936;-51
2022/02/02 20:23:08;;;;;;;;;;;4.20;99.90;;;;;;4173627;28;20015;-51
2022/02/02 20:25:12;;;;;;;;;;;4.30;99.90;;;;;;4176076;28;20000;-48
2022/02/02 20:27:15;;;;;;;;;;;4.20;99.90;;;;;;4179262;28;20028;-49
2022/02/02 20:29:17;;;;;;;;;;;4.10;99.90;;;;;;4173654;28;20015;-51
2022/02/02 20:31:19;;;;;;;;;;;4.00;99.90;;;;;;4169612;28;20557;-50
2022/02/02 20:33:21;;;;;;;;;;;3.80;99.90;;;;;;4159986;28;20015;-50
2022/02/02 20:35:23;;;;;;;;;;;3.70;99.90;;;;;;4175037;28;20019;-50
2022/02/02 20:37:25;;;;;;;;;;;3.60;99.90;;;;;;4168650;28;19960;-49
2022/02/02 20:41:35;;;;;;;;;;;3.20;99.90;;;;;;4173635;28;19964;-49
2022/02/02 20:43:53;;;;;;;;;;;3.10;99.90;;;;;;4176299;28;19925;-50
2022/02/02 21:04:43;;;;;;;;;;;3.00;99.90;;;;;;4177475;28;20342;-50
2022/02/02 21:11:02;;;;;;;;;;;3.00;99.90;;;;;;4164964;28;19928;-49
2022/02/02 21:15:27;;;;;;;;;;;3.10;99.90;;;;;;4177463;28;20349;-46
2022/02/02 21:17:33;;;;;;;;;;;3.10;99.90;;;;;;4164767;28;19967;-50
2022/02/02 21:19:48;;;;;;;;;;;3.00;99.90;;;;;;4170611;28;19933;-49
2022/02/02 21:21:53;;;;;;;;;;;3.00;99.90;;;;;;4167825;28;20448;-48
2022/02/02 21:28:09;;;;;;;;;;;2.80;99.90;;;;;;4172382;28;19948;-49
2022/02/02 21:30:11;;;;;;;;;;;2.90;99.90;;;;;;4167808;28;20064;-48
2022/02/02 21:32:13;;;;;;;;;;;2.80;99.90;;;;;;4169145;28;19928;-47
2022/02/02 21:34:15;;;;;;;;;;;2.90;99.90;;;;;;4173928;28;20234;-50
2022/02/02 21:36:18;;;;;;;;;;;3.00;99.90;;;;;;4179075;28;19925;-49
2022/02/02 21:40:29;;;;;;;;;;;3.00;99.90;;;;;;4177747;28;19972;-47
2022/02/02 21:42:31;;;;;;;;;;;2.70;99.90;;;;;;4162486;28;19929;-49
2022/02/02 21:44:34;;;;;;;;;;;2.30;99.90;;;;;;4177225;28;20008;-50
2022/02/02 21:46:36;;;;;;;;;;;1.90;99.90;;;;;;4177023;28;19932;-49
2022/02/02 21:48:41;;;;;;;;;;;1.70;99.90;;;;;;4178873;28;20369;-49
2022/02/02 21:52:46;;;;;;;;;;;1.80;99.90;;;;;;4176825;28;20023;-49
2022/02/02 21:54:48;;;;;;;;;;;2.00;99.90;;;;;;4178685;28;19935;-50
2022/02/02 21:56:50;;;;;;;;;;;2.10;99.90;;;;;;4176260;28;20438;-47
2022/02/02 21:58:52;;;;;;;;;;;1.90;99.90;;;;;;4177547;28;19936;-51
2022/02/02 22:00:54;;;;;;;;;;;1.80;99.90;;;;;;4178879;28;20410;-51
2022/02/02 22:02:55;;;;;;;;;;;1.60;99.90;;;;;;4170261;28;20378;-49
2022/02/02 22:04:57;;;;;;;;;;;1.60;99.90;;;;;;4176897;28;19963;-48
2022/02/02 22:07:01;;;;;;;;;;;1.60;99.90;;;;;;4178080;28;20033;-45
2022/02/02 22:09:03;;;;;;;;;;;1.80;99.90;;;;;;4176799;28;19932;-47
2022/02/02 22:11:05;;;;;;;;;;;1.80;99.90;;;;;;4176378;28;20024;-46
2022/02/02 22:13:08;;;;;;;;;;;1.80;99.90;;;;;;4168352;28;19971;-48
2022/02/02 22:15:16;;;;;;;;;;;1.70;99.90;;;;;;4176647;28;19925;-46
2022/02/02 22:17:20;;;;;;;;;;;1.70;99.90;;;;;;4176119;28;19929;-48
2022/02/02 22:19:22;;;;;;;;;;;1.80;99.90;;;;;;4175687;28;19964;-47
2022/02/02 22:21:26;;;;;;;;;;;1.80;99.90;;;;;;4171422;28;20489;-48
2022/02/02 22:23:28;;;;;;;;;;;1.90;99.90;;;;;;4172199;28;19948;-49
2022/02/02 22:25:31;;;;;;;;;;;1.90;99.90;;;;;;4176914;28;19980;-50
2022/02/02 22:27:33;;;;;;;;;;;1.80;99.90;;;;;;4176224;28;19936;-49
2022/02/02 22:29:35;;;;;;;;;;;1.80;99.90;;;;;;4176203;28;19968;-49
2022/02/02 22:31:36;;;;;;;;;;;1.90;99.90;;;;;;4177899;28;19935;-49
2022/02/02 22:33:38;;;;;;;;;;;1.90;99.90;;;;;;4174591;28;19925;-48
2022/02/02 22:35:42;;;;;;;;;;;1.90;99.90;;;;;;4178367;28;19936;-46
2022/02/02 22:37:44;;;;;;;;;;;1.80;99.90;;;;;;4176624;28;19975;-48
2022/02/02 22:39:48;;;;;;;;;;;1.90;99.90;;;;;;4174338;28;19925;-47
2022/02/02 22:41:52;;;;;;;;;;;1.90;99.90;;;;;;4174190;28;21533;-50
2022/02/02 22:43:55;;;;;;;;;;;1.80;99.90;;;;;;4177644;28;19932;-48
2022/02/02 22:45:57;;;;;;;;;;;1.90;99.90;;;;;;4171930;28;19932;-50
2022/02/02 22:47:59;;;;;;;;;;;1.80;99.90;;;;;;4169934;28;20304;-50
2022/02/02 22:50:04;;;;;;;;;;;1.80;99.90;;;;;;4169608;28;19925;-49
2022/02/02 22:52:07;;;;;;;;;;;1.70;99.90;;;;;;4175139;28;19933;-49
2022/02/02 22:54:09;;;;;;;;;;;1.70;99.90;;;;;;4177006;28;19933;-50
2022/02/02 22:56:12;;;;;;;;;;;1.60;99.90;;;;;;4175695;28;19929;-49
2022/02/02 22:58:14;;;;;;;;;;;1.60;99.90;;;;;;4175761;28;20717;-49
2022/02/02 23:00:21;;;;;;;;;;;1.60;99.90;;;;;;4176556;28;19940;-49
2022/02/02 23:04:30;;;;;;;;;;;1.50;99.90;;;;;;4174554;28;19925;-49
2022/02/02 23:06:32;;;;;;;;;;;1.40;99.90;;;;;;4163153;28;19964;-49